createdAt,value
2022-10-17T00:01:06.162Z,100992.28
2022-10-17T00:03:34.525Z,100986.48
2022-10-17T00:06:10.455Z,100980.76
2022-10-17T00:08:39.367Z,100981.63
2022-10-17T00:11:09.389Z,100981.05
2022-10-17T00:13:36.770Z,100975.61
2022-10-17T00:16:04.797Z,100970.89
2022-10-17T00:18:32.783Z,100974.13
2022-10-17T00:20:59.998Z,100978.40
2022-10-17T00:23:30.713Z,100981.90
2022-10-17T00:26:01.782Z,100978.48
2022-10-17T00:28:29.009Z,100988.98
2022-10-17T00:30:58.569Z,100991.87
2022-10-17T00:33:27.087Z,100993.69
2022-10-17T00:36:14.641Z,100997.77
2022-10-17T00:38:43.806Z,101000.83
2022-10-17T00:41:13.734Z,101000.60
2022-10-17T00:43:51.047Z,101001.25
2022-10-17T00:46:19.332Z,101000.27
2022-10-17T00:48:47.184Z,101005.86
2022-10-17T00:51:15.315Z,101006.51
2022-10-17T00:53:42.475Z,101007.11
2022-10-17T00:56:09.598Z,101004.75
2022-10-17T00:58:36.864Z,101003.35
2022-10-17T01:01:06.508Z,101003.84
2022-10-17T01:03:33.683Z,101001.92
2022-10-17T01:06:00.985Z,100999.34
2022-10-17T01:08:28.185Z,101003.92
2022-10-17T01:11:18.981Z,101010.12
2022-10-17T01:13:54.113Z,101012.13
2022-10-17T01:16:43.497Z,101012.84
2022-10-17T01:19:33.719Z,101010.11
2022-10-17T01:22:02.529Z,101007.04
2022-10-17T01:24:35.667Z,101006.52
2022-10-17T01:27:21.257Z,101006.20
2022-10-17T01:30:23.648Z,101003.89
2022-10-17T01:32:59.380Z,101006.66
2022-10-17T01:35:45.563Z,101011.19
2022-10-17T01:38:24.109Z,101009.04
2022-10-17T01:41:01.178Z,101007.50
2022-10-17T01:43:37.056Z,101008.67
2022-10-17T01:46:17.232Z,101008.09
2022-10-17T01:48:46.776Z,101009.81
2022-10-17T01:51:19.132Z,101005.50
2022-10-17T01:53:55.483Z,101004.55
2022-10-17T01:56:24.519Z,101003.84
2022-10-17T01:58:56.068Z,101003.29
2022-10-17T02:01:25.021Z,101001.29
2022-10-17T02:03:53.212Z,101000.87
2022-10-17T02:06:21.518Z,100997.33
2022-10-17T02:08:51.529Z,100997.44
2022-10-17T02:11:22.778Z,100991.67
2022-10-17T02:14:13.734Z,100994.70
2022-10-17T02:17:02.259Z,100990.66
2022-10-17T02:19:55.967Z,100991.29
2022-10-17T02:22:41.339Z,100996.98
2022-10-17T02:25:17.419Z,100993.67
2022-10-17T02:27:54.309Z,100996.08
2022-10-17T02:30:21.580Z,101000.05
2022-10-17T02:33:01.171Z,101002.52
2022-10-17T02:35:31.674Z,101007.47
2022-10-17T02:38:00.383Z,101012.90
2022-10-17T02:40:28.364Z,101013.06
2022-10-17T02:42:57.088Z,101015.85
2022-10-17T02:45:25.353Z,101020.05
2022-10-17T02:48:04.868Z,101020.33
2022-10-17T02:50:43.828Z,101023.19
2022-10-17T02:53:18.459Z,101027.67
2022-10-17T02:55:51.996Z,101032.11
2022-10-17T02:58:22.114Z,101032.87
2022-10-17T03:00:49.832Z,101034.98
2022-10-17T03:03:29.292Z,101035.52
2022-10-17T03:06:00.062Z,101037.46
2022-10-17T03:08:27.499Z,101036.71
2022-10-17T03:10:56.358Z,101031.39
2022-10-17T03:13:28.918Z,101034.27
2022-10-17T03:15:58.681Z,101037.86
2022-10-17T03:18:26.173Z,101036.85
2022-10-17T03:20:56.602Z,101040.02
2022-10-17T03:23:23.979Z,101037.60
2022-10-17T03:25:52.257Z,101038.52
2022-10-17T03:28:19.918Z,101046.59
2022-10-17T03:30:47.480Z,101042.01
2022-10-17T03:33:15.472Z,101043.23
2022-10-17T03:35:43.239Z,101045.12
2022-10-17T03:38:10.857Z,101042.86
2022-10-17T03:40:38.422Z,101048.61
2022-10-17T03:43:05.997Z,101050.95
2022-10-17T03:45:33.420Z,101053.10
2022-10-17T03:48:00.698Z,101052.70
2022-10-17T03:50:28.035Z,101052.64
2022-10-17T03:52:55.818Z,101054.55
2022-10-17T03:55:23.034Z,101056.86
2022-10-17T03:57:50.186Z,101056.05
2022-10-17T04:00:18.382Z,101061.98
2022-10-17T04:02:50.972Z,101064.34
2022-10-17T04:05:19.339Z,101064.54
2022-10-17T04:07:47.098Z,101066.89
2022-10-17T04:10:15.115Z,101067.60
2022-10-17T04:12:42.557Z,101070.48
2022-10-17T04:15:10.582Z,101073.52
2022-10-17T04:17:38.173Z,101076.20
2022-10-17T04:20:07.336Z,101073.63
2022-10-17T04:22:34.463Z,101072.33
2022-10-17T04:25:01.898Z,101069.95
2022-10-17T04:27:38.478Z,101068.93
2022-10-17T04:30:06.861Z,101070.80
2022-10-17T04:32:38.713Z,101070.41
2022-10-17T04:35:15.141Z,101073.84
2022-10-17T04:37:46.580Z,101074.04
2022-10-17T04:40:17.862Z,101070.23
2022-10-17T04:42:45.114Z,101071.41
2022-10-17T04:45:13.968Z,101073.98
2022-10-17T04:47:41.439Z,101074.66
2022-10-17T04:50:09.282Z,101071.36
2022-10-17T04:52:37.917Z,101073.88
2022-10-17T04:55:08.422Z,101072.58
2022-10-17T04:57:36.197Z,101072.29
2022-10-17T05:00:12.649Z,101073.30
2022-10-17T05:03:06.318Z,101075.05
2022-10-17T05:05:33.745Z,101075.42
2022-10-17T05:08:02.715Z,101077.61
2022-10-17T05:10:40.440Z,101077.64
2022-10-17T05:13:09.027Z,101075.70
2022-10-17T05:15:37.418Z,101079.39
2022-10-17T05:18:07.109Z,101079.92
2022-10-17T05:20:34.752Z,101086.78
2022-10-17T05:23:02.748Z,101090.02
2022-10-17T05:25:34.420Z,101087.83
2022-10-17T05:28:01.718Z,101092.27
2022-10-17T05:30:31.462Z,101094.46
2022-10-17T05:33:01.190Z,101095.06
2022-10-17T05:35:28.838Z,101095.01
2022-10-17T05:38:01.419Z,101099.41
2022-10-17T05:40:30.289Z,101104.86
2022-10-17T05:42:57.351Z,101111.14
2022-10-17T05:45:25.356Z,101113.04
2022-10-17T05:47:52.501Z,101118.04
2022-10-17T05:50:22.398Z,101120.96
2022-10-17T05:53:09.740Z,101120.86
2022-10-17T05:55:41.053Z,101130.45
2022-10-17T05:58:09.741Z,101129.71
2022-10-17T06:00:39.486Z,101127.33
2022-10-17T06:03:06.847Z,101130.04
2022-10-17T06:05:36.005Z,101129.81
2022-10-17T06:08:03.358Z,101132.20
2022-10-17T06:10:34.388Z,101135.03
2022-10-17T06:13:01.853Z,101138.39
2022-10-17T06:15:29.308Z,101143.79
2022-10-17T06:18:01.997Z,101144.00
2022-10-17T06:20:29.337Z,101148.59
2022-10-17T06:22:56.894Z,101151.90
2022-10-17T06:25:37.374Z,101153.59
2022-10-17T06:28:05.342Z,101155.98
2022-10-17T06:30:32.483Z,101154.29
2022-10-17T06:32:59.838Z,101156.35
2022-10-17T06:35:27.147Z,101153.46
2022-10-17T06:37:54.356Z,101159.56
2022-10-17T06:40:22.935Z,101163.19
2022-10-17T06:42:50.491Z,101162.98
2022-10-17T06:45:40.093Z,101164.83
2022-10-17T06:48:31.045Z,101163.67
2022-10-17T06:51:14.082Z,101163.42
2022-10-17T06:53:50.316Z,101166.71
2022-10-17T06:56:44.253Z,101168.91
2022-10-17T06:59:27.472Z,101170.70
2022-10-17T07:02:13.499Z,101171.46
2022-10-17T07:04:42.458Z,101177.72
2022-10-17T07:07:12.779Z,101180.73
2022-10-17T07:09:40.427Z,101187.34
2022-10-17T07:12:08.997Z,101180.33
2022-10-17T07:14:37.011Z,101185.28
2022-10-17T07:17:04.656Z,101189.02
2022-10-17T07:19:34.358Z,101191.74
2022-10-17T07:22:02.109Z,101191.02
2022-10-17T07:24:31.006Z,101187.44
2022-10-17T07:27:06.545Z,101191.76
2022-10-17T07:29:33.894Z,101190.98
2022-10-17T07:32:24.398Z,101196.30
2022-10-17T07:34:53.308Z,101195.84
2022-10-17T07:37:20.858Z,101197.21
2022-10-17T07:39:53.652Z,101197.80
2022-10-17T07:42:20.799Z,101196.17
2022-10-17T07:44:48.562Z,101193.90
2022-10-17T07:47:16.547Z,101198.35
2022-10-17T07:49:45.614Z,101198.98
2022-10-17T07:52:17.396Z,101196.70
2022-10-17T07:54:47.634Z,101192.94
2022-10-17T07:57:15.059Z,101197.10
2022-10-17T07:59:42.939Z,101196.34
2022-10-17T08:02:21.424Z,101199.92
2022-10-17T08:04:49.794Z,101203.56
2022-10-17T08:07:22.038Z,101204.22
2022-10-17T08:09:51.771Z,101203.91
2022-10-17T08:12:19.135Z,101205.91
2022-10-17T08:14:47.096Z,101202.94
2022-10-17T08:17:14.466Z,101200.59
2022-10-17T08:19:41.919Z,101201.48
2022-10-17T08:22:09.982Z,101199.72
2022-10-17T08:24:37.536Z,101198.45
2022-10-17T08:27:11.751Z,101200.67
2022-10-17T08:29:42.483Z,101198.75
2022-10-17T08:32:10.498Z,101199.38
2022-10-17T08:34:37.931Z,101196.89
2022-10-17T08:37:05.430Z,101195.88
2022-10-17T08:39:33.150Z,101197.59
2022-10-17T08:42:09.812Z,101197.83
2022-10-17T08:44:46.813Z,101195.36
2022-10-17T08:47:17.200Z,101192.23
2022-10-17T08:49:53.177Z,101195.13
2022-10-17T08:52:38.452Z,101197.28
2022-10-17T08:55:15.785Z,101190.84
2022-10-17T08:57:44.544Z,101187.02
2022-10-17T09:00:22.638Z,101184.13
2022-10-17T09:03:13.596Z,101178.61
2022-10-17T09:05:44.705Z,101179.65
2022-10-17T09:08:28.835Z,101178.96
2022-10-17T09:11:21.578Z,101175.00
2022-10-17T09:13:53.744Z,101176.48
2022-10-17T09:16:33.186Z,101178.46
2022-10-17T09:19:16.707Z,101179.62
2022-10-17T09:21:56.975Z,101177.75
2022-10-17T09:24:34.865Z,101182.23
2022-10-17T09:27:03.042Z,101178.77
2022-10-17T09:29:36.036Z,101177.48
2022-10-17T09:32:12.197Z,101175.66
2022-10-17T09:34:39.337Z,101175.98
2022-10-17T09:37:13.437Z,101174.42
2022-10-17T09:39:42.143Z,101174.65
2022-10-17T09:42:13.848Z,101176.62
2022-10-17T09:45:13.239Z,101164.44
2022-10-17T09:47:58.397Z,101171.43
2022-10-17T09:50:33.156Z,101172.55
2022-10-17T09:53:13.970Z,101169.39
2022-10-17T09:55:49.217Z,101169.13
2022-10-17T09:58:16.949Z,101167.13
2022-10-17T10:00:46.151Z,101168.16
2022-10-17T10:03:13.525Z,101165.86
2022-10-17T10:05:41.922Z,101160.52
2022-10-17T10:08:19.919Z,101162.92
2022-10-17T10:10:47.783Z,101161.17
2022-10-17T10:13:15.497Z,101165.58
2022-10-17T10:15:46.335Z,101168.56
2022-10-17T10:18:26.149Z,101171.12
2022-10-17T10:21:11.370Z,101167.23
2022-10-17T10:23:43.917Z,101168.55
2022-10-17T10:26:25.799Z,101173.63
2022-10-17T10:29:02.406Z,101175.92
2022-10-17T10:31:38.119Z,101172.60
2022-10-17T10:34:17.417Z,101170.25
2022-10-17T10:36:52.145Z,101168.16
2022-10-17T10:39:36.644Z,101168.79
2022-10-17T10:42:07.553Z,101168.23
2022-10-17T10:44:37.099Z,101163.91
2022-10-17T10:47:26.741Z,101165.11
2022-10-17T10:50:17.040Z,101163.14
2022-10-17T10:52:48.639Z,101156.25
2022-10-17T10:55:33.305Z,101162.09
2022-10-17T10:58:45.877Z,101160.32
2022-10-17T11:01:26.405Z,101158.92
2022-10-17T11:04:36.974Z,101154.02
2022-10-17T11:07:12.521Z,101154.66
2022-10-17T11:10:01.743Z,101157.41
2022-10-17T11:15:37.070Z,101142.60
2022-10-17T11:18:24.379Z,101137.37
2022-10-17T11:21:00.357Z,101135.52
2022-10-17T11:23:52.695Z,101137.09
2022-10-17T11:26:34.390Z,101135.02
2022-10-17T11:29:04.568Z,101129.66
2022-10-17T11:31:37.378Z,101135.05
2022-10-17T11:34:25.093Z,101135.23
2022-10-17T11:37:11.098Z,101131.03
2022-10-17T11:42:38.999Z,101133.70
2022-10-17T11:45:12.168Z,101129.99
2022-10-17T11:47:50.799Z,101132.02
2022-10-17T11:53:20.716Z,101118.63
2022-10-17T11:55:48.888Z,101114.01
2022-10-17T11:58:30.525Z,101115.84
2022-10-17T12:01:24.674Z,101105.20
2022-10-17T12:04:02.197Z,101107.30
2022-10-17T12:07:00.450Z,101103.20
2022-10-17T12:09:42.637Z,101098.04
2022-10-17T12:12:13.270Z,101090.09
2022-10-17T12:14:41.975Z,101090.58
2022-10-17T12:17:41.115Z,101092.67
2022-10-17T12:20:31.358Z,101087.77
2022-10-17T12:23:03.940Z,101081.06
2022-10-17T12:32:12.212Z,101079.36
2022-10-17T12:34:39.564Z,101074.73
2022-10-17T12:37:11.764Z,101080.27
2022-10-17T12:39:39.279Z,101086.63
2022-10-17T12:42:30.763Z,101085.16
2022-10-17T12:44:58.669Z,101079.66
2022-10-17T12:47:39.448Z,101082.80
2022-10-17T12:50:47.371Z,101084.45
2022-10-17T12:53:19.289Z,101078.14
2022-10-17T12:55:46.941Z,101077.41
2022-10-17T12:58:17.319Z,101078.08
2022-10-17T13:01:18.812Z,101075.19
2022-10-17T13:03:48.924Z,101072.32
2022-10-17T13:06:31.210Z,101073.57
2022-10-17T13:09:05.305Z,101072.38
2022-10-17T13:11:36.611Z,101080.11
2022-10-17T13:14:10.114Z,101076.02
2022-10-17T13:16:52.229Z,101082.55
2022-10-17T13:19:25.672Z,101080.23
2022-10-17T13:22:02.259Z,101084.95
2022-10-17T13:24:36.801Z,101085.05
2022-10-17T13:27:05.530Z,101086.50
2022-10-17T13:29:33.544Z,101085.65
2022-10-17T13:32:05.012Z,101091.81
2022-10-17T13:34:37.657Z,101083.76
2022-10-17T13:37:07.800Z,101081.66
2022-10-17T13:39:58.169Z,101068.90
2022-10-17T13:42:30.497Z,101058.16
2022-10-17T13:44:58.540Z,101050.14
2022-10-17T13:47:31.171Z,101045.58
2022-10-17T13:49:59.079Z,101051.39
2022-10-17T13:52:29.460Z,101054.48
2022-10-17T13:55:08.659Z,101059.41
2022-10-17T13:57:36.393Z,101060.58
2022-10-17T14:00:27.469Z,101060.59
2022-10-17T14:02:54.795Z,101060.20
2022-10-17T14:05:24.045Z,101065.08
2022-10-17T14:10:43.517Z,101072.09
2022-10-17T14:13:25.848Z,101070.67
2022-10-17T14:15:54.969Z,101075.41
2022-10-17T14:18:25.773Z,101071.34
2022-10-17T14:21:36.827Z,101073.73
2022-10-17T14:23:45.139Z,101068.75
2022-10-17T14:26:16.738Z,101061.24
2022-10-17T14:28:48.270Z,101061.79
2022-10-17T14:31:30.186Z,101057.88
2022-10-17T14:33:58.160Z,101059.52
2022-10-17T14:36:38.500Z,101062.02
2022-10-17T14:39:13.330Z,101059.10
2022-10-17T14:41:44.344Z,101060.36
2022-10-17T14:44:22.033Z,101060.88
2022-10-17T14:46:53.571Z,101061.48
2022-10-17T14:49:26.711Z,101064.47
2022-10-17T14:52:17.696Z,101068.09
2022-10-17T14:54:47.931Z,101069.58
2022-10-17T14:57:19.644Z,101073.15
2022-10-17T14:59:55.630Z,101071.13
2022-10-17T15:02:28.926Z,101069.98
2022-10-17T15:04:56.819Z,101065.16
2022-10-17T15:07:24.995Z,101060.50
2022-10-17T15:09:54.291Z,101057.51
2022-10-17T15:12:28.422Z,101059.34
2022-10-17T15:14:56.722Z,101059.84
2022-10-17T15:17:28.242Z,101059.38
2022-10-17T15:19:56.591Z,101058.56
2022-10-17T15:22:24.900Z,101057.96
2022-10-17T15:24:53.072Z,101055.21
2022-10-17T15:27:23.920Z,101056.91
2022-10-17T15:29:52.069Z,101059.47
2022-10-17T15:32:20.312Z,101058.92
2022-10-17T15:34:48.125Z,101059.63
2022-10-17T15:37:22.939Z,101061.58
2022-10-17T15:39:54.760Z,101053.56
2022-10-17T15:42:30.556Z,101055.91
2022-10-17T15:44:59.130Z,101054.33
2022-10-17T15:47:35.408Z,101056.50
2022-10-17T15:50:03.685Z,101057.13
2022-10-17T15:52:31.371Z,101056.89
2022-10-17T15:55:01.037Z,101056.56
2022-10-17T15:57:36.881Z,101058.06
2022-10-17T16:00:06.940Z,101057.70
2022-10-17T16:02:37.460Z,101057.44
2022-10-17T16:05:26.493Z,101060.23
2022-10-17T16:07:54.789Z,101057.70
2022-10-17T16:10:23.578Z,101057.08
2022-10-17T16:12:51.366Z,101056.30
2022-10-17T16:15:25.500Z,101053.05
2022-10-17T16:17:54.995Z,101053.23
2022-10-17T16:20:23.568Z,101054.95
2022-10-17T16:22:51.445Z,101052.98
2022-10-17T16:25:29.404Z,101059.02
2022-10-17T16:27:59.041Z,101057.52
2022-10-17T16:30:29.100Z,101058.09
2022-10-17T16:32:58.039Z,101060.30
2022-10-17T16:35:33.096Z,101061.15
2022-10-17T16:38:05.634Z,101060.61
2022-10-17T16:40:33.325Z,101058.42
2022-10-17T16:43:00.878Z,101057.20
2022-10-17T16:45:28.304Z,101055.92
2022-10-17T16:47:55.634Z,101056.29
2022-10-17T16:50:23.189Z,101050.63
2022-10-17T16:52:51.939Z,101050.83
2022-10-17T16:55:20.105Z,101048.72
2022-10-17T16:57:49.578Z,101050.41
2022-10-17T17:00:18.655Z,101048.55
2022-10-17T17:02:49.499Z,101049.24
2022-10-17T17:05:17.104Z,101049.36
2022-10-17T17:07:45.186Z,101048.48
2022-10-17T17:10:13.644Z,101054.40
2022-10-17T17:12:42.472Z,101051.38
2022-10-17T17:15:09.979Z,101054.98
2022-10-17T17:17:50.258Z,101054.73
2022-10-17T17:20:22.701Z,101058.84
2022-10-17T17:22:53.169Z,101060.56
2022-10-17T17:25:22.580Z,101061.12
2022-10-17T17:27:52.032Z,101064.67
2022-10-17T17:30:22.052Z,101064.58
2022-10-17T17:32:51.093Z,101065.27
2022-10-17T17:35:20.085Z,101062.91
2022-10-17T17:37:48.424Z,101061.60
2022-10-17T17:40:16.535Z,101060.68
2022-10-17T17:42:44.790Z,101064.16
2022-10-17T17:45:13.269Z,101064.04
2022-10-17T17:47:44.293Z,101061.52
2022-10-17T17:50:12.601Z,101061.05
2022-10-17T17:52:43.001Z,101060.48
2022-10-17T17:55:10.387Z,101058.59
2022-10-17T17:57:38.640Z,101051.17
2022-10-17T18:03:36.540Z,101052.58
2022-10-17T18:06:06.929Z,101051.70
2022-10-17T18:08:35.616Z,101062.98
2022-10-17T18:11:07.860Z,101062.73
2022-10-17T18:13:38.188Z,101069.14
2022-10-17T18:16:14.893Z,101068.58
2022-10-17T18:18:47.252Z,101070.06
2022-10-17T18:21:15.436Z,101073.31
2022-10-17T18:23:46.193Z,101074.07
2022-10-17T18:26:16.919Z,101073.06
2022-10-17T18:28:45.521Z,101079.21
2022-10-17T18:31:20.315Z,101074.56
2022-10-17T18:33:52.220Z,101075.46
2022-10-17T18:36:21.448Z,101074.61
2022-10-17T18:38:49.875Z,101071.66
2022-10-17T18:41:22.119Z,101072.77
2022-10-17T18:43:51.942Z,101077.08
2022-10-17T18:46:28.019Z,101078.51
2022-10-17T18:48:57.791Z,101083.41
2022-10-17T18:51:31.640Z,101083.55
2022-10-17T18:54:00.719Z,101079.11
2022-10-17T18:56:29.293Z,101075.81
2022-10-17T18:58:57.356Z,101076.84
2022-10-17T19:01:29.337Z,101081.78
2022-10-17T19:04:00.848Z,101077.75
2022-10-17T19:06:32.764Z,101082.40
2022-10-17T19:09:02.592Z,101079.86
2022-10-17T19:11:34.475Z,101080.54
2022-10-17T19:14:06.304Z,101073.57
2022-10-17T19:16:37.549Z,101079.77
2022-10-17T19:19:21.551Z,101081.61
2022-10-17T19:21:50.237Z,101086.48
2022-10-17T19:24:25.523Z,101080.67
2022-10-17T19:26:55.685Z,101079.89
2022-10-17T19:29:32.545Z,101080.06
2022-10-17T19:32:01.732Z,101079.13
2022-10-17T19:34:31.317Z,101080.44
2022-10-17T19:36:59.778Z,101080.60
2022-10-17T19:39:29.095Z,101083.81
2022-10-17T19:41:56.738Z,101081.45
2022-10-17T19:44:25.110Z,101081.98
2022-10-17T19:46:53.698Z,101084.27
2022-10-17T19:49:22.399Z,101086.86
2022-10-17T19:51:50.621Z,101087.80
2022-10-17T19:54:21.075Z,101092.46
2022-10-17T19:56:49.661Z,101089.79
2022-10-17T19:59:19.409Z,101090.42
2022-10-17T20:01:48.651Z,101087.11
2022-10-17T20:04:20.708Z,101087.09
2022-10-17T20:06:49.097Z,101088.97
2022-10-17T20:09:18.138Z,101088.96
2022-10-17T20:11:49.963Z,101091.70
2022-10-17T20:14:17.168Z,101090.09
2022-10-17T20:16:46.081Z,101092.95
2022-10-17T20:19:15.238Z,101090.09
2022-10-17T20:21:44.358Z,101093.85
2022-10-17T20:24:15.143Z,101092.89
2022-10-17T20:26:43.443Z,101090.60
2022-10-17T20:29:18.424Z,101099.14
2022-10-17T20:31:46.900Z,101101.58
2022-10-17T20:34:15.679Z,101105.25
2022-10-17T20:36:42.955Z,101107.92
2022-10-17T20:39:12.741Z,101113.30
2022-10-17T20:41:40.545Z,101115.00
2022-10-17T20:44:08.919Z,101112.73
2022-10-17T20:46:41.578Z,101114.95
2022-10-17T20:49:15.907Z,101118.33
2022-10-17T20:51:43.632Z,101118.92
2022-10-17T20:54:11.960Z,101116.33
2022-10-17T20:56:40.358Z,101120.48
2022-10-17T20:59:12.689Z,101119.77
2022-10-17T21:01:40.225Z,101127.01
2022-10-17T21:04:33.440Z,101126.86
2022-10-17T21:06:54.861Z,101126.16
2022-10-17T21:09:22.420Z,101123.64
2022-10-17T21:11:53.301Z,101120.27
2022-10-17T21:14:21.737Z,101129.31
2022-10-17T21:16:49.376Z,101131.67
2022-10-17T21:19:17.055Z,101134.69
2022-10-17T21:21:46.248Z,101131.04
2022-10-17T21:24:19.279Z,101132.63
2022-10-17T21:26:50.237Z,101125.16
2022-10-17T21:29:17.538Z,101105.34
2022-10-17T21:31:45.697Z,101094.00
2022-10-17T21:34:15.517Z,101117.42
2022-10-17T21:36:44.302Z,101125.16
2022-10-17T21:39:12.781Z,101113.48
2022-10-17T21:41:40.542Z,101122.93
2022-10-17T21:44:15.872Z,101120.35
2022-10-17T21:46:44.492Z,101119.09
2022-10-17T21:49:13.358Z,101123.94
2022-10-17T21:51:41.431Z,101121.98
2022-10-17T21:54:08.798Z,101125.10
2022-10-17T21:56:36.835Z,101119.33
2022-10-17T21:59:05.258Z,101106.25
2022-10-17T22:01:36.818Z,101110.86
2022-10-17T22:04:12.362Z,101110.85
2022-10-17T22:06:41.345Z,101102.08
2022-10-17T22:09:23.635Z,101109.05
2022-10-17T22:11:53.860Z,101121.02
2022-10-17T22:14:23.397Z,101104.00
2022-10-17T22:16:51.950Z,101090.56
2022-10-17T22:19:23.070Z,101093.23
2022-10-17T22:21:50.878Z,101096.38
2022-10-17T22:24:22.955Z,101104.36
2022-10-17T22:26:50.595Z,101105.21
2022-10-17T22:29:18.496Z,101104.19
2022-10-17T22:31:46.402Z,101099.58
2022-10-17T22:34:15.543Z,101097.10
2022-10-17T22:36:43.812Z,101090.36
2022-10-17T22:39:11.864Z,101092.92
2022-10-17T22:41:40.327Z,101094.57
2022-10-17T22:44:07.682Z,101100.88
2022-10-17T22:46:35.038Z,101095.69
2022-10-17T22:49:03.433Z,101096.18
2022-10-17T22:51:30.982Z,101092.64
2022-10-17T22:53:58.337Z,101093.73
2022-10-17T22:56:25.898Z,101092.23
2022-10-17T22:58:53.359Z,101092.15
2022-10-17T23:01:23.155Z,101093.73
2022-10-17T23:03:51.106Z,101089.96
2022-10-17T23:06:18.879Z,101085.30
2022-10-17T23:08:46.348Z,101086.49
2022-10-17T23:11:15.046Z,101083.75
2022-10-17T23:13:42.518Z,101091.56
2022-10-17T23:16:09.939Z,101088.14
2022-10-17T23:18:38.741Z,101088.69
2022-10-17T23:21:08.460Z,101091.83
2022-10-17T23:23:36.501Z,101091.39
2022-10-17T23:26:12.479Z,101086.67
2022-10-17T23:28:40.418Z,101086.84
2022-10-17T23:31:19.867Z,101081.52
2022-10-17T23:33:50.199Z,101074.11
2022-10-17T23:36:19.434Z,101071.59
2022-10-17T23:38:48.718Z,101068.32
2022-10-17T23:41:16.881Z,101073.16
2022-10-17T23:43:44.640Z,101073.14
2022-10-17T23:46:12.078Z,101073.30
2022-10-17T23:48:39.742Z,101071.00
2022-10-17T23:51:08.318Z,101073.44
2022-10-17T23:53:40.201Z,101073.97
2022-10-17T23:56:08.884Z,101074.73
2022-10-17T23:58:36.635Z,101075.21
